Rockwell, NC

4:08 PM EST on March 02, 2015 (GMT -0500)
Stanly County | Change Station
CLOSE
Current Station
Airport
Location: Albemarle,
Elevation: 610 ft
Nearby Weather Stations

Elev 610 ft 35.42 °N, 80.15 °W | Updated 13 minutes ago

Partly Cloudy
Partly Cloudy
63 °F
Feels Like 63 °F
N
9
Wind Variable Wind from NE

Today
High -- | Low -- °F
--% Chance of Precip.
Yesterday
High -- | Low -- °F
Precip. -- in
6:50 AM 6:17 PM
Waxing Gibbous, 93% visible
Pressure 30.24 in
Visibility 10.0 miles
Clouds Mostly Cloudy 5000 ft
Dew Point 45 °F
Humidity 53%
Rainfall 0.00 in
Snow Depth Not available.
UV 1 out of 12
Pollen 8.40 out of 12
Air Quality Not available.
Flu Activity Not available.
METAR KVUJ 022055Z AUTO 05008KT 10SM BKN050 17/07 A3024 RMK AO2 T01710074

More Conditions Fewer Conditions

Pressure 30.24 in
Visibility 10.0 miles
Clouds Mostly Cloudy 5000 ft
Dew Point 45 °F
Humidity 53%
Rainfall 0.00 in
Snow Depth Not available.
UV 1 out of 12
Pollen 8.40 out of 12
Air Quality Not available.
Flu Activity Not available.
METAR KVUJ 022055Z AUTO 05008KT 10SM BKN050 17/07 A3024 RMK AO2 T01710074

More Conditions Fewer Conditions

10-Day Weather Forecast

Almanac

Astronomy

Mar. 02, 2015 Rise Set
Actual Time
Civil Twilight
Nautical Twilight
Astronomical Twilight
Moon
Length of Visible Light
Length of Day
Tomorrow will be .
, % of the Moon is Illuminated

Today's Extremes

State Highs State Lows

Community

WunderPhotos

Upload Photos

1,801,943 photos uploaded!

WunderBlogs® & News

Nearby

Air Quality

  Air Quality AQ Index Pollutant
Not available.

Snow Depth

Station Depth Elevation

Earthquake Activity

City Distance Mag. Time & Date
Minimum magnitude displayed is 2.5.

Coastal Water Temperatures

Place Temperature

Nearby Weather Stations